Wetterdaten: Woche 19.03.18 - 25.03.18 (KW12)
Datum Zeit Temp. Aussen Temp. o. S. +5cm Feuchte Auss BlattFeu 1 Luftdruck Regen Sonnenschein Regendauer Solar Windben Empfang
19.03.2018 00:00 -2,1 C -2,4 C -4,1 C 61 % 0 lf 1010,5 hPa 0,0 l/m 0,00 h 0,00 h 0 W/m 22,5 km/h (4 Bft) 94,73 %
19.03.2018 01:00 -2,5 C -3,0 C -4,5 C 62 % 0 lf 1010,5 hPa 0,0 l/m 0,00 h 0,00 h 0 W/m 19,3 km/h (3 Bft) 98,01 %
19.03.2018 02:00 -2,8 C -3,3 C -4,8 C 64 % 0 lf 1010,3 hPa 0,0 l/m 0,00 h 0,00 h 0 W/m 20,6 km/h (4 Bft) 96,37 %
19.03.2018 03:00 -3,0 C -3,3 C -4,7 C 64 % 0 lf 1010,3 hPa 0,0 l/m 0,00 h 0,00 h 0 W/m 21,1 km/h (4 Bft) 95,02 %
19.03.2018 04:00 -3,2 C -3,3 C -4,9 C 64 % 0 lf 1010,3 hPa 0,0 l/m 0,00 h 0,00 h 0 W/m 23,7 km/h (4 Bft) 97,85 %
19.03.2018 05:00 -3,1 C -3,3 C -4,4 C 64 % 0 lf 1010,5 hPa 0,0 l/m 0,00 h 0,00 h 0 W/m 22,8 km/h (4 Bft) 96,86 %
19.03.2018 06:00 -3,6 C -3,9 C -5,4 C 65 % 0 lf 1010,7 hPa 0,0 l/m 0,00 h 0,00 h 8 W/m 21,9 km/h (4 Bft) 94,15 %
19.03.2018 07:00 -3,8 C -2,9 C -5,0 C 67 % 0 lf 1011,2 hPa 0,0 l/m 0,70 h 0,00 h 81 W/m 20,8 km/h (4 Bft) 97,64 %
19.03.2018 08:00 -2,6 C 1,1 C -2,7 C 63 % 0 lf 1011,5 hPa 0,0 l/m 0,93 h 0,00 h 228 W/m 28,7 km/h (4 Bft) 95,97 %
19.03.2018 09:00 -1,0 C 3,4 C 0,2 C 59 % 0 lf 1011,7 hPa 0,0 l/m 1,00 h 0,00 h 358 W/m 27,3 km/h (4 Bft) 94,67 %
19.03.2018 10:00 0,5 C 6,3 C 4,2 C 57 % 0 lf 1011,9 hPa 0,0 l/m 1,00 h 0,00 h 425 W/m 27,9 km/h (4 Bft) 97,71 %
19.03.2018 11:00 1,5 C 7,7 C 5,1 C 55 % 0 lf 1012,2 hPa 0,0 l/m 1,00 h 0,00 h 537 W/m 31,6 km/h (5 Bft) 97,87 %
19.03.2018 12:00 3,0 C 9,5 C 2,5 C 52 % 0 lf 1012,2 hPa 0,0 l/m 1,00 h 0,00 h 555 W/m 29,6 km/h (5 Bft) 93,88 %
19.03.2018 13:00 4,0 C 10,6 C 2,5 C 50 % 0 lf 1012,0 hPa 0,0 l/m 1,00 h 0,00 h 498 W/m 30,5 km/h (5 Bft) 95,81 %
19.03.2018 14:00 4,7 C 10,2 C 3,9 C 49 % 0 lf 1011,7 hPa 0,0 l/m 1,00 h 0,00 h 393 W/m 30,0 km/h (5 Bft) 97,94 %
19.03.2018 15:00 5,0 C 9,0 C 3,3 C 48 % 0 lf 1011,5 hPa 0,0 l/m 0,60 h 0,00 h 230 W/m 28,8 km/h (5 Bft) 95,58 %
19.03.2018 16:00 5,1 C 5,8 C 2,9 C 48 % 0 lf 1011,3 hPa 0,0 l/m 0,00 h 0,00 h 86 W/m 31,5 km/h (5 Bft) 96,30 %
19.03.2018 17:00 4,1 C 4,0 C 1,6 C 51 % 0 lf 1011,7 hPa 0,0 l/m 0,00 h 0,00 h 29 W/m 33,3 km/h (5 Bft) 94,86 %
19.03.2018 18:00 2,4 C 1,8 C -0,2 C 53 % 0 lf 1012,6 hPa 0,0 l/m 0,00 h 0,00 h 12 W/m 29,3 km/h (5 Bft) 98,54 %
19.03.2018 19:00 1,0 C 0,5 C -1,5 C 53 % 0 lf 1013,5 hPa 0,0 l/m 0,00 h 0,00 h 0 W/m 25,1 km/h (4 Bft) 96,08 %
19.03.2018 20:00 0,4 C -0,2 C -2,2 C 53 % 0 lf 1014,2 hPa 0,0 l/m 0,00 h 0,00 h 0 W/m 23,2 km/h (4 Bft) 96,17 %
19.03.2018 21:00 -0,2 C -0,9 C -3,0 C 53 % 0 lf 1015,0 hPa 0,0 l/m 0,00 h 0,00 h 0 W/m 16,7 km/h (3 Bft) 96,77 %
19.03.2018 22:00 -0,9 C -1,8 C -3,5 C 56 % 0 lf 1015,4 hPa 0,0 l/m 0,00 h 0,00 h 0 W/m 10,7 km/h (2 Bft) 96,17 %
19.03.2018 23:00 -1,7 C -3,3 C -5,2 C 60 % 0 lf 1015,6 hPa 0,0 l/m 0,00 h 0,00 h 0 W/m 6,2 km/h (2 Bft) 97,99 %
20.03.2018 00:00 -2,6 C -4,6 C -6,7 C 64 % 0 lf 1015,8 hPa 0,0 l/m 0,00 h 0,00 h 0 W/m 5,2 km/h (1 Bft) 94,61 %
20.03.2018 01:00 -3,4 C -5,2 C -7,6 C 68 % 0 lf 1015,8 hPa 0,0 l/m 0,00 h 0,00 h 0 W/m 3,7 km/h (1 Bft) 98,08 %
20.03.2018 02:00 -4,1 C -5,6 C -7,8 C 70 % 0 lf 1016,0 hPa 0,0 l/m 0,00 h 0,00 h 0 W/m 2,9 km/h (1 Bft) 94,81 %
20.03.2018 03:00 -4,5 C -4,6 C -5,9 C 74 % 0 lf 1015,9 hPa 0,0 l/m 0,00 h 0,00 h 0 W/m 5,3 km/h (1 Bft) 97,08 %
20.03.2018 04:00 -3,2 C -2,5 C -3,4 C 79 % 0 lf 1015,6 hPa 0,0 l/m 0,00 h 0,00 h 0 W/m 8,6 km/h (2 Bft) 94,05 %
20.03.2018 05:00 -2,5 C -2,5 C -3,3 C 82 % 0 lf 1015,5 hPa 0,0 l/m 0,00 h 0,00 h 0 W/m 10,5 km/h (2 Bft) 95,33 %
20.03.2018 06:00 -2,1 C -1,9 C -2,9 C 88 % 0 lf 1015,5 hPa 0,0 l/m 0,00 h 0,00 h 5 W/m 9,3 km/h (2 Bft) 96,34 %
20.03.2018 07:00 -1,3 C -1,2 C -1,9 C 91 % 3 lf 1016,0 hPa 0,0 l/m 0,00 h 0,00 h 23 W/m 7,9 km/h (2 Bft) 96,19 %
20.03.2018 08:00 -0,1 C 2,3 C -0,1 C 93 % 15 lf 1016,4 hPa 0,0 l/m 0,10 h 0,00 h 115 W/m 13,0 km/h (3 Bft) 97,93 %
20.03.2018 09:00 1,8 C 8,3 C 2,5 C 94 % 5 lf 1017,0 hPa 0,0 l/m 0,73 h 0,00 h 343 W/m 24,0 km/h (4 Bft) 93,25 %
20.03.2018 10:00 3,8 C 10,1 C 6,1 C 82 % 0 lf 1017,8 hPa 0,0 l/m 1,00 h 0,00 h 515 W/m 33,7 km/h (5 Bft) 98,44 %
20.03.2018 11:00 5,5 C 12,4 C 7,9 C 67 % 0 lf 1018,7 hPa 0,0 l/m 1,00 h 0,00 h 618 W/m 39,2 km/h (6 Bft) 97,30 %
20.03.2018 12:00 7,2 C 13,9 C 5,7 C 55 % 0 lf 1019,2 hPa 0,0 l/m 1,00 h 0,00 h 602 W/m 39,5 km/h (6 Bft) 94,29 %
20.03.2018 13:00 8,1 C 13,8 C 6,6 C 48 % 0 lf 1019,6 hPa 0,0 l/m 1,00 h 0,00 h 534 W/m 42,8 km/h (6 Bft) 97,78 %
20.03.2018 14:00 8,4 C 13,7 C 7,4 C 47 % 0 lf 1020,0 hPa 0,0 l/m 1,00 h 0,00 h 407 W/m 38,4 km/h (5 Bft) 96,38 %
20.03.2018 15:00 8,7 C 12,6 C 7,0 C 44 % 0 lf 1020,4 hPa 0,0 l/m 0,60 h 0,00 h 241 W/m 44,1 km/h (6 Bft) 95,14 %
20.03.2018 16:00 8,6 C 9,3 C 6,7 C 42 % 0 lf 1021,1 hPa 0,0 l/m 0,00 h 0,00 h 84 W/m 39,7 km/h (6 Bft) 97,46 %
20.03.2018 17:00 7,8 C 7,9 C 5,8 C 43 % 0 lf 1021,8 hPa 0,0 l/m 0,00 h 0,00 h 26 W/m 35,7 km/h (5 Bft) 96,34 %
20.03.2018 18:00 6,5 C 5,9 C 4,2 C 46 % 0 lf 1022,8 hPa 0,0 l/m 0,00 h 0,00 h 12 W/m 25,1 km/h (4 Bft) 97,25 %
20.03.2018 19:00 4,8 C 4,0 C 2,4 C 53 % 0 lf 1023,8 hPa 0,0 l/m 0,00 h 0,00 h 0 W/m 19,5 km/h (3 Bft) 93,90 %
20.03.2018 20:00 3,7 C 2,9 C 1,5 C 55 % 0 lf 1024,8 hPa 0,0 l/m 0,00 h 0,00 h 0 W/m 19,1 km/h (3 Bft) 96,72 %
20.03.2018 21:00 2,6 C 1,7 C 0,3 C 59 % 0 lf 1025,7 hPa 0,0 l/m 0,00 h 0,00 h 0 W/m 14,5 km/h (3 Bft) 98,23 %
20.03.2018 22:00 1,7 C 0,2 C -1,5 C 62 % 0 lf 1026,2 hPa 0,0 l/m 0,00 h 0,00 h 0 W/m 9,4 km/h (2 Bft) 94,67 %
20.03.2018 23:00 0,8 C -0,2 C -1,7 C 68 % 0 lf 1026,7 hPa 0,0 l/m 0,00 h 0,00 h 0 W/m 9,3 km/h (2 Bft) 97,09 %
21.03.2018 00:00 -0,1 C -2,2 C -4,4 C 71 % 0 lf 1027,1 hPa 0,0 l/m 0,00 h 0,00 h 0 W/m 5,9 km/h (2 Bft) 95,89 %
21.03.2018 01:00 -1,2 C -3,1 C -5,4 C 75 % 0 lf 1027,4 hPa 0,0 l/m 0,00 h 0,00 h 0 W/m 1,2 km/h (1 Bft) 96,58 %
21.03.2018 02:00 -1,9 C -3,4 C -5,7 C 78 % 0 lf 1027,6 hPa 0,0 l/m 0,00 h 0,00 h 0 W/m 2,9 km/h (1 Bft) 97,02 %
21.03.2018 03:00 -2,5 C -3,9 C -6,1 C 81 % 0 lf 1027,6 hPa 0,0 l/m 0,00 h 0,00 h 0 W/m 1,4 km/h (1 Bft) 96,19 %
21.03.2018 04:00 -3,0 C -3,9 C -6,0 C 84 % 1 lf 1027,9 hPa 0,0 l/m 0,00 h 0,00 h 0 W/m 5,1 km/h (1 Bft) 96,02 %
21.03.2018 05:00 -2,6 C -2,6 C -3,7 C 88 % 2 lf 1028,2 hPa 0,0 l/m 0,00 h 0,00 h 0 W/m 8,8 km/h (2 Bft) 90,70 %
21.03.2018 06:00 -2,0 C -2,1 C -2,8 C 92 % 2 lf 1028,1 hPa 0,0 l/m 0,00 h 0,00 h 6 W/m 6,9 km/h (2 Bft) 98,61 %
21.03.2018 07:00 -1,5 C -1,1 C -1,9 C 94 % 5 lf 1028,4 hPa 0,0 l/m 0,00 h 0,00 h 27 W/m 6,0 km/h (2 Bft) 95,45 %
21.03.2018 08:00 -0,6 C 0,3 C -0,7 C 95 % 9 lf 1028,9 hPa 0,0 l/m 0,00 h 0,00 h 45 W/m 4,1 km/h (1 Bft) 95,91 %
21.03.2018 09:00 0,3 C 1,9 C 0,9 C 96 % 0 lf 1029,2 hPa 0,0 l/m 0,00 h 0,00 h 84 W/m 6,0 km/h (2 Bft) 98,01 %
21.03.2018 10:00 0,9 C 2,7 C 1,9 C 96 % 0 lf 1029,3 hPa 0,0 l/m 0,00 h 0,00 h 103 W/m 12,8 km/h (3 Bft) 95,93 %
21.03.2018 11:00 1,6 C 3,7 C 3,3 C 94 % 0 lf 1029,3 hPa 0,0 l/m 0,00 h 0,00 h 154 W/m 12,3 km/h (3 Bft) 96,23 %
21.03.2018 12:00 3,0 C 8,5 C 5,6 C 88 % 0 lf 1029,2 hPa 0,0 l/m 0,73 h 0,00 h 381 W/m 15,0 km/h (3 Bft) 95,51 %
21.03.2018 13:00 5,1 C 12,5 C 6,7 C 77 % 0 lf 1028,5 hPa 0,0 l/m 0,77 h 0,00 h 462 W/m 14,6 km/h (3 Bft) 97,79 %
21.03.2018 14:00 5,8 C 8,5 C 6,4 C 71 % 0 lf 1027,9 hPa 0,0 l/m 0,13 h 0,00 h 193 W/m 11,4 km/h (2 Bft) 97,43 %
21.03.2018 15:00 5,7 C 6,6 C 5,8 C 71 % 0 lf 1027,5 hPa 0,0 l/m 0,00 h 0,00 h 103 W/m 12,3 km/h (3 Bft) 94,66 %
21.03.2018 16:00 5,7 C 6,6 C 5,6 C 71 % 0 lf 1027,1 hPa 0,0 l/m 0,00 h 0,00 h 76 W/m 7,9 km/h (2 Bft) 97,01 %
21.03.2018 17:00 5,7 C 6,0 C 4,8 C 71 % 0 lf 1026,4 hPa 0,0 l/m 0,00 h 0,00 h 48 W/m 11,6 km/h (2 Bft) 98,01 %
21.03.2018 18:00 5,5 C 5,2 C 3,7 C 71 % 0 lf 1026,2 hPa 0,0 l/m 0,00 h 0,00 h 17 W/m 12,0 km/h (2 Bft) 95,86 %
21.03.2018 19:00 4,7 C 4,1 C 2,2 C 73 % 0 lf 1026,0 hPa 0,0 l/m 0,00 h 0,00 h 0 W/m 9,7 km/h (2 Bft) 95,30 %
21.03.2018 20:00 4,2 C 3,9 C 2,2 C 76 % 0 lf 1025,7 hPa 0,0 l/m 0,00 h 0,00 h 0 W/m 12,5 km/h (3 Bft) 97,86 %
21.03.2018 21:00 3,7 C 3,1 C 1,4 C 77 % 0 lf 1025,3 hPa 0,0 l/m 0,00 h 0,00 h 0 W/m 11,5 km/h (2 Bft) 95,80 %
21.03.2018 22:00 2,9 C 2,2 C 0,6 C 81 % 0 lf 1024,8 hPa 0,0 l/m 0,00 h 0,00 h 0 W/m 10,0 km/h (2 Bft) 94,59 %
21.03.2018 23:00 2,5 C 2,2 C 0,8 C 83 % 0 lf 1023,9 hPa 0,0 l/m 0,00 h 0,00 h 0 W/m 11,3 km/h (2 Bft) 98,72 %
22.03.2018 00:00 2,5 C 2,3 C 0,9 C 84 % 0 lf 1023,0 hPa 0,0 l/m 0,00 h 0,00 h 0 W/m 11,5 km/h (2 Bft) 95,48 %
22.03.2018 01:00 2,8 C 2,9 C 1,6 C 85 % 0 lf 1022,4 hPa 0,0 l/m 0,00 h 0,00 h 0 W/m 14,2 km/h (3 Bft) 95,08 %
22.03.2018 02:00 3,3 C 3,3 C 2,2 C 82 % 0 lf 1021,1 hPa 0,0 l/m 0,00 h 0,00 h 0 W/m 16,3 km/h (3 Bft) 96,37 %
22.03.2018 03:00 3,5 C 3,3 C 2,2 C 83 % 0 lf 1020,2 hPa 0,0 l/m 0,00 h 0,00 h 0 W/m 20,9 km/h (4 Bft) 98,74 %
22.03.2018 04:00 3,4 C 3,3 C 2,1 C 85 % 0 lf 1019,2 hPa 0,0 l/m 0,00 h 0,00 h 0 W/m 18,4 km/h (3 Bft) 94,76 %
22.03.2018 05:00 3,4 C 3,3 C 2,2 C 87 % 0 lf 1018,3 hPa 0,0 l/m 0,00 h 0,00 h 0 W/m 18,3 km/h (3 Bft) 96,52 %
22.03.2018 06:00 3,4 C 2,9 C 1,7 C 89 % 12 lf 1017,4 hPa 0,6 l/m 0,00 h 0,73 h 0 W/m 22,5 km/h (4 Bft) 97,64 %
22.03.2018 07:00 3,0 C 2,2 C 1,3 C 92 % 15 lf 1017,0 hPa 0,8 l/m 0,00 h 0,70 h 11 W/m 27,3 km/h (4 Bft) 95,16 %
22.03.2018 08:00 2,8 C 2,4 C 1,8 C 95 % 15 lf 1016,2 hPa 0,0 l/m 0,00 h 0,77 h 29 W/m 30,6 km/h (5 Bft) 95,59 %
22.03.2018 09:00 3,1 C 2,9 C 2,2 C 96 % 15 lf 1015,7 hPa 0,0 l/m 0,00 h 0,70 h 39 W/m 31,2 km/h (5 Bft) 98,89 %
22.03.2018 10:00 3,6 C 3,7 C 2,9 C 96 % 15 lf 1015,0 hPa 0,0 l/m 0,00 h 0,90 h 58 W/m 28,0 km/h (4 Bft) 94,07 %
22.03.2018 11:00 4,5 C 4,6 C 3,9 C 97 % 15 lf 1014,8 hPa 0,0 l/m 0,00 h 0,67 h 64 W/m 21,2 km/h (4 Bft) 96,39 %
22.03.2018 12:00 5,2 C 5,4 C 4,7 C 97 % 15 lf 1014,2 hPa 0,0 l/m 0,00 h 0,13 h 67 W/m 21,4 km/h (4 Bft) 96,76 %
22.03.2018 13:00 5,7 C 6,1 C 5,1 C 98 % 15 lf 1013,7 hPa 0,0 l/m 0,00 h 0,00 h 65 W/m 17,7 km/h (3 Bft) 95,80 %
22.03.2018 14:00 6,9 C 8,7 C 7,0 C 98 % 8 lf 1013,4 hPa 0,0 l/m 0,03 h 0,00 h 133 W/m 18,0 km/h (3 Bft) 97,01 %
22.03.2018 15:00 7,0 C 7,4 C 5,9 C 98 % 9 lf 1013,0 hPa 0,0 l/m 0,00 h 0,00 h 43 W/m 13,6 km/h (3 Bft) 96,52 %
22.03.2018 16:00 7,5 C 8,7 C 7,0 C 97 % 2 lf 1012,5 hPa 0,0 l/m 0,00 h 0,00 h 85 W/m 14,6 km/h (3 Bft) 96,37 %
22.03.2018 17:00 7,6 C 7,9 C 6,1 C 95 % 0 lf 1012,6 hPa 0,0 l/m 0,00 h 0,00 h 25 W/m 14,6 km/h (3 Bft) 96,86 %
22.03.2018 18:00 7,4 C 7,2 C 5,3 C 93 % 0 lf 1012,7 hPa 0,0 l/m 0,00 h 0,00 h 6 W/m 12,4 km/h (3 Bft) 95,83 %
22.03.2018 19:00 7,2 C 6,7 C 5,0 C 93 % 6 lf 1012,7 hPa 0,0 l/m 0,00 h 0,00 h 0 W/m 10,5 km/h (2 Bft) 97,17 %
22.03.2018 20:00 6,8 C 6,3 C 4,8 C 95 % 8 lf 1012,6 hPa 0,0 l/m 0,00 h 0,00 h 0 W/m 9,6 km/h (2 Bft) 96,60 %
22.03.2018 21:00 6,3 C 6,1 C 4,4 C 95 % 0 lf 1012,5 hPa 0,0 l/m 0,00 h 0,00 h 0 W/m 9,2 km/h (2 Bft) 95,82 %
22.03.2018 22:00 6,2 C 6,1 C 4,4 C 95 % 0 lf 1012,4 hPa 0,0 l/m 0,00 h 0,00 h 0 W/m 9,8 km/h (2 Bft) 97,52 %
22.03.2018 23:00 6,0 C 5,8 C 4,4 C 95 % 0 lf 1011,9 hPa 0,0 l/m 0,00 h 0,00 h 0 W/m 10,0 km/h (2 Bft) 95,23 %
23.03.2018 00:00 5,9 C 5,6 C 4,4 C 95 % 0 lf 1011,3 hPa 0,0 l/m 0,00 h 0,00 h 0 W/m 11,4 km/h (2 Bft) 88,58 %
23.03.2018 01:00 5,9 C 5,6 C 4,4 C 96 % 1 lf 1010,8 hPa 0,0 l/m 0,00 h 0,00 h 0 W/m 8,8 km/h (2 Bft) 95,87 %
23.03.2018 02:00 5,9 C 5,6 C 4,4 C 96 % 15 lf 1010,2 hPa 0,0 l/m 0,00 h 0,30 h 0 W/m 9,0 km/h (2 Bft) 96,79 %
23.03.2018 03:00 5,9 C 5,6 C 4,4 C 97 % 15 lf 1009,6 hPa 0,0 l/m 0,00 h 0,03 h 0 W/m 10,4 km/h (2 Bft) 96,53 %
23.03.2018 04:00 5,6 C 5,3 C 4,1 C 97 % 15 lf 1009,1 hPa 0,0 l/m 0,00 h 0,03 h 0 W/m 16,6 km/h (3 Bft) 96,37 %
23.03.2018 05:00 5,2 C 5,0 C 3,9 C 97 % 11 lf 1008,8 hPa 0,0 l/m 0,00 h 0,00 h 0 W/m 16,8 km/h (3 Bft) 95,81 %
23.03.2018 06:00 4,8 C 5,0 C 3,4 C 97 % 0 lf 1008,4 hPa 0,0 l/m 0,00 h 0,00 h 6 W/m 15,6 km/h (3 Bft) 97,07 %
23.03.2018 07:00 4,7 C 5,0 C 3,5 C 95 % 0 lf 1008,3 hPa 0,0 l/m 0,00 h 0,00 h 19 W/m 14,8 km/h (3 Bft) 95,58 %
23.03.2018 08:00 5,1 C 6,7 C 4,7 C 94 % 0 lf 1008,1 hPa 0,0 l/m 0,13 h 0,07 h 102 W/m 14,8 km/h (3 Bft) 97,44 %
23.03.2018 09:00 6,4 C 10,1 C 7,2 C 88 % 0 lf 1007,6 hPa 0,0 l/m 0,70 h 0,00 h 233 W/m 20,4 km/h (4 Bft) 95,02 %
23.03.2018 10:00 6,9 C 8,4 C 7,6 C 83 % 0 lf 1007,0 hPa 0,0 l/m 0,00 h 0,00 h 154 W/m 22,0 km/h (4 Bft) 97,15 %
23.03.2018 11:00 6,7 C 7,3 C 6,7 C 83 % 0 lf 1006,4 hPa 0,0 l/m 0,00 h 0,00 h 97 W/m 22,4 km/h (4 Bft) 96,66 %
23.03.2018 12:00 6,4 C 6,9 C 6,2 C 84 % 0 lf 1005,8 hPa 0,0 l/m 0,00 h 0,00 h 85 W/m 22,1 km/h (4 Bft) 95,66 %
23.03.2018 13:00 6,5 C 7,1 C 6,6 C 83 % 0 lf 1005,0 hPa 0,0 l/m 0,00 h 0,00 h 108 W/m 24,3 km/h (4 Bft) 97,19 %
23.03.2018 14:00 6,6 C 6,9 C 6,2 C 82 % 0 lf 1004,4 hPa 0,0 l/m 0,00 h 0,00 h 77 W/m 25,4 km/h (4 Bft) 96,24 %
23.03.2018 15:00 6,5 C 7,1 C 6,5 C 82 % 0 lf 1004,0 hPa 0,0 l/m 0,00 h 0,00 h 89 W/m 22,2 km/h (4 Bft) 97,40 %
23.03.2018 16:00 7,1 C 7,6 C 7,2 C 79 % 0 lf 1003,3 hPa 0,0 l/m 0,00 h 0,00 h 86 W/m 20,6 km/h (4 Bft) 94,80 %
23.03.2018 17:00 6,9 C 6,9 C 6,1 C 79 % 0 lf 1002,9 hPa 0,0 l/m 0,00 h 0,00 h 41 W/m 20,6 km/h (4 Bft) 98,14 %
23.03.2018 18:00 6,6 C 6,4 C 5,2 C 82 % 0 lf 1002,7 hPa 0,0 l/m 0,00 h 0,00 h 10 W/m 18,6 km/h (3 Bft) 96,25 %
23.03.2018 19:00 6,4 C 6,1 C 5,0 C 84 % 0 lf 1002,6 hPa 0,0 l/m 0,00 h 0,00 h 0 W/m 16,9 km/h (3 Bft) 95,30 %
23.03.2018 20:00 6,3 C 6,1 C 5,0 C 84 % 0 lf 1002,5 hPa 0,0 l/m 0,00 h 0,00 h 0 W/m 17,1 km/h (3 Bft) 97,15 %
23.03.2018 21:00 6,1 C 5,9 C 4,5 C 84 % 0 lf 1002,2 hPa 0,0 l/m 0,00 h 0,00 h 0 W/m 17,6 km/h (3 Bft) 96,87 %
23.03.2018 22:00 5,8 C 5,6 C 4,4 C 84 % 0 lf 1001,9 hPa 0,0 l/m 0,00 h 0,00 h 0 W/m 13,2 km/h (3 Bft) 95,22 %
23.03.2018 23:00 5,7 C 5,4 C 4,2 C 85 % 0 lf 1001,5 hPa 0,0 l/m 0,00 h 0,00 h 0 W/m 7,5 km/h (2 Bft) 98,29 %
24.03.2018 00:00 5,4 C 5,0 C 3,9 C 86 % 0 lf 1001,3 hPa 0,0 l/m 0,00 h 0,00 h 0 W/m 7,2 km/h (2 Bft) 95,17 %
24.03.2018 01:00 5,2 C 5,0 C 3,9 C 85 % 0 lf 1000,9 hPa 0,0 l/m 0,00 h 0,00 h 0 W/m 7,0 km/h (2 Bft) 96,95 %
24.03.2018 02:00 5,1 C 5,0 C 3,8 C 85 % 0 lf 1000,7 hPa 0,0 l/m 0,00 h 0,00 h 0 W/m 7,4 km/h (2 Bft) 95,22 %
24.03.2018 03:00 5,0 C 5,0 C 3,6 C 86 % 0 lf 1000,4 hPa 0,0 l/m 0,00 h 0,00 h 0 W/m 8,6 km/h (2 Bft) 97,88 %
24.03.2018 04:00 4,9 C 5,0 C 3,4 C 86 % 0 lf 1000,4 hPa 0,0 l/m 0,00 h 0,00 h 0 W/m 11,9 km/h (2 Bft) 96,24 %
24.03.2018 05:00 4,6 C 4,2 C 3,1 C 86 % 0 lf 1000,5 hPa 0,0 l/m 0,00 h 0,00 h 0 W/m 15,0 km/h (3 Bft) 95,85 %
24.03.2018 06:00 4,1 C 3,9 C 2,8 C 88 % 0 lf 1000,6 hPa 0,0 l/m 0,00 h 0,00 h 10 W/m 13,1 km/h (3 Bft) 98,08 %
24.03.2018 07:00 3,9 C 4,1 C 3,2 C 89 % 0 lf 1000,9 hPa 0,0 l/m 0,07 h 0,00 h 40 W/m 11,6 km/h (2 Bft) 95,87 %
24.03.2018 08:00 4,1 C 5,1 C 4,6 C 89 % 0 lf 1001,2 hPa 0,0 l/m 0,00 h 0,00 h 107 W/m 13,2 km/h (3 Bft) 95,59 %
24.03.2018 09:00 5,7 C 10,2 C 8,2 C 86 % 0 lf 1001,6 hPa 0,0 l/m 0,90 h 0,00 h 318 W/m 12,8 km/h (3 Bft) 98,30 %
24.03.2018 10:00 8,6 C 14,8 C 13,4 C 79 % 0 lf 1001,7 hPa 0,0 l/m 1,00 h 0,00 h 484 W/m 16,6 km/h (3 Bft) 96,11 %
24.03.2018 11:00 10,1 C 15,2 C 14,1 C 71 % 0 lf 1001,4 hPa 0,0 l/m 0,93 h 0,00 h 533 W/m 21,2 km/h (4 Bft) 96,01 %
24.03.2018 12:00 11,2 C 15,8 C 11,6 C 65 % 0 lf 1001,3 hPa 0,0 l/m 1,00 h 0,00 h 548 W/m 26,2 km/h (4 Bft) 95,74 %
24.03.2018 13:00 11,5 C 15,6 C 11,4 C 62 % 0 lf 1001,0 hPa 0,0 l/m 1,00 h 0,00 h 439 W/m 23,7 km/h (4 Bft) 98,00 %
24.03.2018 14:00 11,9 C 15,6 C 12,0 C 57 % 0 lf 1000,9 hPa 0,0 l/m 0,83 h 0,00 h 365 W/m 21,2 km/h (4 Bft) 97,08 %
24.03.2018 15:00 12,7 C 16,1 C 12,1 C 56 % 0 lf 1000,7 hPa 0,0 l/m 0,73 h 0,00 h 268 W/m 22,1 km/h (4 Bft) 95,02 %
24.03.2018 16:00 12,6 C 12,6 C 10,7 C 56 % 0 lf 1000,7 hPa 0,0 l/m 0,00 h 0,00 h 90 W/m 16,2 km/h (3 Bft) 98,58 %
24.03.2018 17:00 12,0 C 11,8 C 9,7 C 56 % 0 lf 1000,9 hPa 0,0 l/m 0,00 h 0,00 h 40 W/m 13,4 km/h (3 Bft) 96,49 %
24.03.2018 18:00 11,4 C 10,3 C 7,3 C 58 % 0 lf 1001,3 hPa 0,0 l/m 0,00 h 0,00 h 16 W/m 8,3 km/h (2 Bft) 95,37 %
24.03.2018 19:00 9,7 C 7,8 C 3,5 C 63 % 0 lf 1001,7 hPa 0,0 l/m 0,00 h 0,00 h 0 W/m 7,5 km/h (2 Bft) 97,23 %
24.03.2018 20:00 7,7 C 5,9 C 1,7 C 69 % 0 lf 1002,0 hPa 0,0 l/m 0,00 h 0,00 h 0 W/m 5,9 km/h (2 Bft) 96,87 %
24.03.2018 21:00 6,2 C 4,6 C 0,8 C 73 % 0 lf 1002,3 hPa 0,0 l/m 0,00 h 0,00 h 0 W/m 5,0 km/h (1 Bft) 96,37 %
24.03.2018 22:00 4,9 C 2,9 C -0,3 C 76 % 0 lf 1002,6 hPa 0,0 l/m 0,00 h 0,00 h 0 W/m 0,9 km/h (0 Bft) 94,49 %
24.03.2018 23:00 3,5 C 1,6 C -1,0 C 80 % 0 lf 1002,9 hPa 0,0 l/m 0,00 h 0,00 h 0 W/m 0,0 km/h (0 Bft) 98,95 %
25.03.2018 00:00 2,5 C 0,9 C -1,7 C 84 % 0 lf 1002,9 hPa 0,0 l/m 0,00 h 0,00 h 0 W/m 0,0 km/h (0 Bft) 94,66 %
25.03.2018 01:00 1,8 C 1,1 C -2,0 C 87 % 1 lf 1002,9 hPa 0,0 l/m 0,00 h 0,00 h 0 W/m 0,8 km/h (0 Bft) 97,15 %
25.03.2018 03:00 1,1 C -0,1 C -2,3 C 88 % 2 lf 1002,9 hPa 0,0 l/m 0,00 h 0,00 h 0 W/m 0,0 km/h (0 Bft) 96,09 %
25.03.2018 04:00 0,5 C -0,6 C -2,5 C 89 % 1 lf 1003,1 hPa 0,0 l/m 0,00 h 0,00 h 0 W/m 0,0 km/h (0 Bft) 96,63 %
25.03.2018 05:00 0,2 C -1,0 C -2,9 C 90 % 2 lf 1003,5 hPa 0,0 l/m 0,00 h 0,00 h 0 W/m 0,0 km/h (0 Bft) 97,95 %
25.03.2018 06:00 -0,3 C -1,6 C -3,3 C 90 % 4 lf 1003,9 hPa 0,0 l/m 0,00 h 0,00 h 0 W/m 0,0 km/h (0 Bft) 93,92 %
25.03.2018 07:00 -0,8 C -1,5 C -3,3 C 91 % 10 lf 1004,3 hPa 0,0 l/m 0,00 h 0,00 h 13 W/m 1,0 km/h (0 Bft) 97,08 %
25.03.2018 08:00 -0,5 C 2,4 C -2,0 C 93 % 11 lf 1004,9 hPa 0,0 l/m 0,67 h 0,00 h 94 W/m 2,6 km/h (1 Bft) 97,94 %
25.03.2018 09:00 2,9 C 10,6 C 2,9 C 94 % 0 lf 1005,8 hPa 0,0 l/m 1,00 h 0,00 h 272 W/m 6,8 km/h (2 Bft) 95,02 %
25.03.2018 10:00 7,3 C 14,4 C 9,4 C 78 % 0 lf 1006,2 hPa 0,0 l/m 1,00 h 0,00 h 414 W/m 10,2 km/h (2 Bft) 96,16 %
25.03.2018 11:00 10,3 C 20,1 C 15,4 C 67 % 0 lf 1006,5 hPa 0,0 l/m 1,00 h 0,00 h 524 W/m 4,7 km/h (1 Bft) 95,79 %
25.03.2018 12:00 12,6 C 22,3 C 17,0 C 58 % 0 lf 1006,8 hPa 0,0 l/m 1,00 h 0,00 h 586 W/m 7,8 km/h (2 Bft) 98,23 %
25.03.2018 13:00 13,5 C 22,5 C 11,9 C 52 % 0 lf 1006,9 hPa 0,0 l/m 0,97 h 0,00 h 568 W/m 10,6 km/h (2 Bft) 97,56 %
25.03.2018 14:00 14,1 C 23,5 C 12,1 C 51 % 0 lf 1007,0 hPa 0,0 l/m 1,00 h 0,00 h 511 W/m 10,3 km/h (2 Bft) 94,00 %
25.03.2018 15:00 14,0 C 20,8 C 13,4 C 51 % 0 lf 1007,0 hPa 0,0 l/m 0,93 h 0,00 h 388 W/m 15,5 km/h (3 Bft) 96,09 %
25.03.2018 16:00 13,8 C 17,7 C 12,7 C 53 % 0 lf 1006,9 hPa 0,0 l/m 0,37 h 0,00 h 222 W/m 15,7 km/h (3 Bft) 97,48 %
25.03.2018 17:00 13,0 C 13,4 C 12,1 C 57 % 0 lf 1007,2 hPa 0,0 l/m 0,00 h 0,00 h 99 W/m 18,3 km/h (3 Bft) 97,06 %
25.03.2018 18:00 11,8 C 11,6 C 10,4 C 60 % 0 lf 1007,8 hPa 0,0 l/m 0,00 h 0,00 h 36 W/m 20,7 km/h (4 Bft) 95,53 %
25.03.2018 19:00 11,0 C 10,6 C 9,3 C 63 % 0 lf 1008,3 hPa 0,0 l/m 0,00 h 0,00 h 11 W/m 12,3 km/h (3 Bft) 95,87 %
25.03.2018 20:00 10,4 C 9,8 C 8,5 C 65 % 0 lf 1009,1 hPa 0,0 l/m 0,00 h 0,00 h 0 W/m 9,5 km/h (2 Bft) 98,29 %
25.03.2018 21:00 9,8 C 9,3 C 8,0 C 67 % 0 lf 1009,8 hPa 0,0 l/m 0,00 h 0,00 h 0 W/m 12,3 km/h (3 Bft) 95,66 %
25.03.2018 22:00 9,1 C 8,2 C 6,8 C 72 % 0 lf 1010,2 hPa 0,0 l/m 0,00 h 0,00 h 0 W/m 8,1 km/h (2 Bft) 95,66 %
25.03.2018 23:00 8,1 C 6,2 C 4,0 C 75 % 0 lf 1010,5 hPa 0,0 l/m 0,00 h 0,00 h 0 W/m 7,7 km/h (2 Bft) 97,08 %
Min-Datum _ 20.03.18 20.03.18 20.03.18 20.03.18 19.03.18 24.03.18 - - - - 20.03.18 20.03.18
_ Min-Zeit 03:10 01:36 01:24 15:56 00:00 04:28 - - - - 01:28 04:05
Minimum _ -4,6 C -5,6 C -7,8 C 41 % 0 lf 1000,2 hPa - - - - 0,0 km/h (0 Bft) 3,51 %
Max-Datum _ 25.03.18 25.03.18 25.03.18 22.03.18 20.03.18 21.03.18 22.03.18 25.03.18 22.03.18 21.03.18 20.03.18 19.03.18
_ Max-Zeit 14:28 14:04 12:38 12:36 07:58 09:32 07:00 12:08 09:08 13:06 13:58 01:00
Maximum _ 14,2 C 26,1 C 18,3 C 98 % 15 lf 1029,4 hPa 0,8 l/m 0,07 h 0,07 h 796 W/m 60,8 km/h
N-NO (7 Bft)
100,00 %
Durchschnitt _ 4,3 C 5,3 C 3,0 C 76 % 2 lf 1012,6 hPa #1,4 l/m #31:34 h #5:02 h 193 W/m 15,6 km/h (3 Bft) 96,33 %
© 2018 W. Hausmann